Time;durP1;ratioP1;P1;durP2;ratioP2;P2;SDS_P1;SDS_P2;PMS_P1;PMS_P2;Temp;Humidity;BMP_temperature;BMP_pressure;BME280_temperature;BME280_humidity;BME280_pressure;Samples;Min_cycle;Max_cycle;Signal;HPM_P1;HPM_P2
2023/08/03 00:00:15;;;;;;;1.90;1.00;;;18.50;99.90;;;;;;5036613;28;20936;-61
2023/08/03 00:02:41;;;;;;;2.13;1.80;;;18.00;99.90;;;;;;5037400;28;20477;-61
2023/08/03 00:05:09;;;;;;;2.80;1.30;;;18.20;99.90;;;;;;5031160;28;20492;-61
2023/08/03 00:07:36;;;;;;;4.50;1.50;;;;;;;;;;5037461;28;20472;-61
2023/08/03 00:10:03;;;;;;;1.50;1.30;;;18.10;99.90;;;;;;5038058;28;20497;-61
2023/08/03 00:12:30;;;;;;;2.00;1.60;;;18.10;99.90;;;;;;5021490;28;20479;-62
2023/08/03 00:14:59;;;;;;;2.03;1.37;;;18.10;99.90;;;;;;5014208;28;20532;-62
2023/08/03 00:17:26;;;;;;;2.33;1.40;;;;;;;;;;5011714;28;20478;-58
2023/08/03 00:19:53;;;;;;;4.20;1.37;;;18.20;99.90;;;;;;5017781;28;20448;-62
2023/08/03 00:22:20;;;;;;;3.57;1.43;;;18.00;99.90;;;;;;5018154;28;20462;-59
2023/08/03 00:24:46;;;;;;;2.07;1.30;;;18.70;99.90;;;;;;5027587;28;20452;-60
2023/08/03 00:27:13;;;;;;;1.67;1.30;;;18.10;99.90;;;;;;5037810;28;20449;-59
2023/08/03 00:29:40;;;;;;;3.83;1.23;;;;;;;;;;5037307;28;20461;-62
2023/08/03 00:32:09;;;;;;;1.50;1.13;;;18.00;99.90;;;;;;5037203;28;20472;-60
2023/08/03 00:34:36;;;;;;;1.70;1.53;;;;;;;;;;5034943;28;20480;-61
2023/08/03 00:37:03;;;;;;;1.57;1.13;;;17.60;99.90;;;;;;5030931;28;20910;-61
2023/08/03 00:39:30;;;;;;;3.73;1.20;;;;;;;;;;5035559;28;20451;-62
2023/08/03 00:41:59;;;;;;;2.73;1.23;;;17.80;99.90;;;;;;5037594;28;20449;-62
2023/08/03 00:44:26;;;;;;;2.43;1.80;;;18.00;99.90;;;;;;5037086;28;20480;-60
2023/08/03 00:46:54;;;;;;;1.70;1.30;;;;;;;;;;5037108;28;20480;-60
2023/08/03 00:49:27;;;;;;;2.73;2.13;;;17.70;99.90;;;;;;5019476;28;20894;-61
2023/08/03 00:51:54;;;;;;;1.70;1.40;;;17.80;99.90;;;;;;5018565;28;20461;-59
2023/08/03 00:54:21;;;;;;;1.60;1.40;;;17.70;99.90;;;;;;5015936;28;20501;-57
2023/08/03 00:56:48;;;;;;;1.40;1.20;;;;;;;;;;5010936;28;20446;-63
2023/08/03 00:59:15;;;;;;;1.77;1.30;;;17.60;99.90;;;;;;5006503;28;20489;-63
2023/08/03 01:01:42;;;;;;;1.90;1.50;;;16.00;99.90;;;;;;5011244;28;20478;-61
2023/08/03 01:04:10;;;;;;;1.70;1.20;;;17.70;99.90;;;;;;5017383;28;20466;-61
2023/08/03 01:06:38;;;;;;;5.40;1.60;;;17.70;99.90;;;;;;5015206;28;20442;-61
2023/08/03 01:09:06;;;;;;;2.00;1.60;;;17.70;99.90;;;;;;5017187;28;20454;-60
2023/08/03 01:11:33;;;;;;;2.27;1.70;;;17.90;99.90;;;;;;5016762;28;20508;-59
2023/08/03 01:14:00;;;;;;;2.27;1.80;;;17.60;99.90;;;;;;5016935;28;20470;-61
2023/08/03 01:16:27;;;;;;;4.57;1.83;;;17.90;99.90;;;;;;5016668;28;20446;-57
2023/08/03 01:18:55;;;;;;;3.40;2.17;;;17.80;99.90;;;;;;5016816;28;20477;-60
2023/08/03 01:21:23;;;;;;;3.60;1.73;;;17.90;99.90;;;;;;5013233;28;20445;-61
2023/08/03 01:23:51;;;;;;;3.40;1.97;;;18.00;99.90;;;;;;5012962;28;20453;-61
2023/08/03 01:26:18;;;;;;;1.97;1.40;;;17.70;99.90;;;;;;5035433;28;20429;-58
2023/08/03 01:28:45;;;;;;;3.40;1.80;;;18.00;99.90;;;;;;5036456;28;20437;-59
2023/08/03 01:31:12;;;;;;;2.30;1.70;;;17.80;99.90;;;;;;5036221;28;20445;-60
2023/08/03 01:33:39;;;;;;;1.97;1.60;;;;;;;;;;5036159;28;20449;-61
2023/08/03 01:36:06;;;;;;;1.90;1.53;;;17.50;99.90;;;;;;5036399;28;20449;-59
2023/08/03 01:38:33;;;;;;;1.50;1.40;;;17.70;99.90;;;;;;5020655;28;20484;-58
2023/08/03 01:41:01;;;;;;;2.70;1.60;;;17.40;99.90;;;;;;5029561;28;20437;-62
2023/08/03 01:43:33;;;;;;;2.20;1.60;;;17.90;99.90;;;;;;5026958;28;20449;-56
2023/08/03 01:46:02;;;;;;;2.40;2.07;;;17.80;99.90;;;;;;5039847;28;20418;-46
2023/08/03 01:48:29;;;;;;;1.60;1.50;;;17.80;99.90;;;;;;5034876;28;20736;-63
2023/08/03 01:50:56;;;;;;;4.07;1.80;;;17.70;99.90;;;;;;5015166;28;20519;-62
2023/08/03 01:53:25;;;;;;;3.17;2.07;;;;;;;;;;5024170;28;20488;-61
2023/08/03 01:55:52;;;;;;;2.93;1.73;;;17.90;99.90;;;;;;5010402;28;20470;-61
2023/08/03 01:58:21;;;;;;;1.97;1.77;;;17.70;99.90;;;;;;5010034;28;20481;-61
2023/08/03 02:00:47;;;;;;;2.00;1.63;;;17.80;99.90;;;;;;5015872;28;20481;-59
2023/08/03 02:03:14;;;;;;;4.23;2.20;;;17.80;99.90;;;;;;5013212;28;20482;-59
2023/08/03 02:05:41;;;;;;;2.57;1.73;;;;;;;;;;5016113;28;20473;-60
2023/08/03 02:08:08;;;;;;;2.07;1.83;;;;;;;;;;5015973;28;20468;-57
2023/08/03 02:10:35;;;;;;;3.20;2.07;;;18.30;99.90;;;;;;5000047;28;20490;-61
2023/08/03 02:13:02;;;;;;;2.53;1.50;;;;;;;;;;5009085;28;20478;-59
2023/08/03 02:15:31;;;;;;;2.83;1.90;;;17.90;99.90;;;;;;5008657;28;20462;-60
2023/08/03 02:17:57;;;;;;;1.93;1.73;;;17.90;99.90;;;;;;5009065;28;20458;-61
2023/08/03 02:20:24;;;;;;;1.90;1.80;;;18.00;99.90;;;;;;5009474;28;20494;-60
2023/08/03 02:22:51;;;;;;;1.87;1.50;;;17.80;99.90;;;;;;5012331;28;20438;-62
2023/08/03 02:25:23;;;;;;;2.83;1.90;;;17.80;99.90;;;;;;5033622;28;20480;-62
2023/08/03 02:27:50;;;;;;;3.57;2.30;;;;;;;;;;5033775;28;20453;-61
2023/08/03 02:30:17;;;;;;;4.03;1.80;;;18.20;99.90;;;;;;5035724;28;20457;-62
2023/08/03 02:32:45;;;;;;;2.73;1.80;;;17.70;99.90;;;;;;5035824;28;20485;-57
2023/08/03 02:35:12;;;;;;;2.37;1.87;;;17.80;99.90;;;;;;5024524;28;20541;-61
2023/08/03 02:37:42;;;;;;;2.80;1.93;;;17.70;99.90;;;;;;5023021;28;20441;-61
2023/08/03 02:40:09;;;;;;;2.83;2.23;;;17.80;99.90;;;;;;5021848;28;20484;-62
2023/08/03 02:42:36;;;;;;;2.83;1.60;;;17.90;99.90;;;;;;5028605;28;20444;-62
2023/08/03 02:45:03;;;;;;;2.27;1.83;;;17.80;99.90;;;;;;5028928;28;20465;-62
2023/08/03 02:47:29;;;;;;;2.17;1.93;;;18.00;99.90;;;;;;5029311;28;20433;-62
2023/08/03 02:49:57;;;;;;;1.87;1.50;;;17.70;99.90;;;;;;5030243;28;20495;-61
2023/08/03 02:52:24;;;;;;;3.23;1.70;;;;;;;;;;5028678;28;20597;-62
2023/08/03 02:54:51;;;;;;;3.13;2.10;;;18.30;99.90;;;;;;5030689;28;20456;-55
2023/08/03 02:57:18;;;;;;;3.20;1.93;;;;;;;;;;5035037;28;20425;-61
2023/08/03 02:59:45;;;;;;;3.30;2.00;;;;;;;;;;5034880;28;20477;-59
2023/08/03 03:02:14;;;;;;;2.60;2.10;;;;;;;;;;5034831;28;20473;-58
2023/08/03 03:04:40;;;;;;;1.90;1.40;;;17.60;99.90;;;;;;5028090;28;20518;-58
2023/08/03 03:07:09;;;;;;;2.47;1.73;;;18.00;99.90;;;;;;5015015;28;20474;-60
2023/08/03 03:09:36;;;;;;;2.70;2.03;;;17.90;99.90;;;;;;5015375;28;20456;-60
2023/08/03 03:12:03;;;;;;;2.13;1.77;;;18.00;99.90;;;;;;5014484;28;20485;-60
2023/08/03 03:14:30;;;;;;;3.73;1.67;;;17.90;99.90;;;;;;5006161;28;20477;-61
2023/08/03 03:16:56;;;;;;;2.97;2.07;;;17.90;99.90;;;;;;5009144;28;20516;-61
2023/08/03 03:19:23;;;;;;;2.30;1.87;;;18.00;99.90;;;;;;5013343;28;20478;-61
2023/08/03 03:21:53;;;;;;;3.93;2.13;;;17.90;99.90;;;;;;5014975;28;20466;-61
2023/08/03 03:24:22;;;;;;;5.13;2.00;;;17.80;99.90;;;;;;5016228;28;20444;-60
2023/08/03 03:26:49;;;;;;;3.60;2.23;;;;;;;;;;5014991;28;20485;-60
2023/08/03 03:29:16;;;;;;;4.10;1.80;;;17.90;99.90;;;;;;5028336;28;20473;-59
2023/08/03 03:31:43;;;;;;;2.03;1.60;;;17.90;99.90;;;;;;5027699;28;20546;-61
2023/08/03 03:34:10;;;;;;;2.50;1.80;;;;;;;;;;5028528;28;20486;-61
2023/08/03 03:36:37;;;;;;;3.33;2.50;;;17.90;99.90;;;;;;5029771;28;20446;-59
2023/08/03 03:39:04;;;;;;;3.60;2.77;;;17.50;99.90;;;;;;5029189;28;20503;-61
2023/08/03 03:41:32;;;;;;;4.30;1.93;;;17.80;99.90;;;;;;5033979;28;20460;-60
2023/08/03 03:43:59;;;;;;;4.63;1.80;;;17.60;99.90;;;;;;5023714;28;20492;-58
2023/08/03 03:46:25;;;;;;;2.70;2.20;;;17.90;99.90;;;;;;5030661;28;20469;-60
2023/08/03 03:48:52;;;;;;;2.50;1.57;;;18.00;99.90;;;;;;5031747;28;20456;-60
2023/08/03 03:51:21;;;;;;;2.60;1.93;;;18.00;99.90;;;;;;5032331;28;20482;-58
2023/08/03 03:53:48;;;;;;;3.40;1.93;;;17.90;99.90;;;;;;5032940;28;20463;-60
2023/08/03 03:56:15;;;;;;;5.23;2.00;;;17.80;99.90;;;;;;5030552;28;20475;-63
2023/08/03 03:58:43;;;;;;;3.60;1.80;;;18.00;99.90;;;;;;5027968;28;20505;-62
2023/08/03 04:01:10;;;;;;;2.60;1.77;;;;;;;;;;5028795;28;20469;-60
2023/08/03 04:03:37;;;;;;;2.03;1.83;;;17.60;99.90;;;;;;5028737;28;20512;-64
2023/08/03 04:06:04;;;;;;;7.87;2.20;;;;;;;;;;5032266;28;20441;-59
2023/08/03 04:08:31;;;;;;;2.73;1.93;;;17.80;99.90;;;;;;5036146;28;20472;-59
2023/08/03 04:10:58;;;;;;;5.57;1.80;;;;;;;;;;5032737;28;20980;-60
2023/08/03 04:13:25;;;;;;;3.97;1.70;;;;;;;;;;5029365;28;20488;-60
2023/08/03 04:15:53;;;;;;;2.87;1.57;;;17.90;99.90;;;;;;5037633;28;20500;-61
2023/08/03 04:18:24;;;;;;;4.00;2.07;;;17.60;99.90;;;;;;5037676;28;20476;-62
2023/08/03 04:20:51;;;;;;;2.67;2.03;;;17.80;99.90;;;;;;5037632;28;20484;-61
2023/08/03 04:23:18;;;;;;;1.43;1.33;;;18.00;99.90;;;;;;5037640;28;20481;-58
2023/08/03 04:25:44;;;;;;;4.00;1.73;;;17.90;99.90;;;;;;5021245;28;20472;-62
2023/08/03 04:28:14;;;;;;;2.90;1.63;;;18.30;99.90;;;;;;5030897;28;20559;-58
2023/08/03 04:30:41;;;;;;;5.07;1.90;;;18.30;99.90;;;;;;5033530;28;20436;-62
2023/08/03 04:33:10;;;;;;;2.83;2.30;;;18.20;99.90;;;;;;5036349;28;20484;-62
2023/08/03 04:35:39;;;;;;;7.73;1.50;;;18.40;99.90;;;;;;5037687;28;20443;-56
2023/08/03 04:38:06;;;;;;;4.20;1.90;;;18.30;99.90;;;;;;5037316;28;20448;-59
2023/08/03 04:40:35;;;;;;;4.80;1.87;;;18.60;99.90;;;;;;5030475;28;20441;-62
2023/08/03 04:43:02;;;;;;;4.30;1.60;;;;;;;;;;5027768;28;20445;-57
2023/08/03 04:45:31;;;;;;;10.13;2.03;;;;;;;;;;5037579;28;20417;-61
2023/08/03 04:48:01;;;;;;;6.07;1.80;;;18.30;99.90;;;;;;5037518;28;20533;-59
2023/08/03 04:50:29;;;;;;;4.27;2.27;;;18.30;99.90;;;;;;5036958;28;20449;-57
2023/08/03 04:52:56;;;;;;;6.83;2.33;;;18.70;99.90;;;;;;5037426;28;20477;-61
2023/08/03 04:55:23;;;;;;;6.67;1.87;;;18.40;99.90;;;;;;5037356;28;20472;-57
2023/08/03 04:57:50;;;;;;;5.03;1.73;;;18.40;99.90;;;;;;5036903;28;20424;-57
2023/08/03 05:00:17;;;;;;;2.27;1.60;;;18.40;99.90;;;;;;5036884;28;20468;-61
2023/08/03 05:02:44;;;;;;;8.53;2.43;;;18.50;99.90;;;;;;5037457;28;20448;-61
2023/08/03 05:05:11;;;;;;;4.50;1.97;;;18.30;99.90;;;;;;5036471;28;20461;-53
2023/08/03 05:07:39;;;;;;;3.63;1.20;;;18.50;99.90;;;;;;5037312;28;20445;-59
2023/08/03 05:10:06;;;;;;;2.47;1.43;;;19.10;99.90;;;;;;5036973;28;20499;-58
2023/08/03 05:12:33;;;;;;;5.83;2.00;;;18.50;99.90;;;;;;5029686;28;20478;-61
2023/08/03 05:15:00;;;;;;;4.40;1.77;;;18.60;99.90;;;;;;5035799;28;20503;-58
2023/08/03 05:17:27;;;;;;;4.73;1.80;;;18.60;99.90;;;;;;5030896;28;20476;-57
2023/08/03 05:19:54;;;;;;;1.40;1.20;;;18.60;99.90;;;;;;5036378;28;20460;-57
2023/08/03 05:22:21;;;;;;;2.70;1.60;;;19.40;99.90;;;;;;5036213;28;20480;-60
2023/08/03 05:24:49;;;;;;;3.77;1.83;;;18.70;99.90;;;;;;5035725;28;20488;-63
2023/08/03 05:27:16;;;;;;;5.20;1.73;;;;;;;;;;5036166;28;20484;-60
2023/08/03 05:29:44;;;;;;;13.50;2.10;;;18.50;99.90;;;;;;5036164;28;20497;-60
2023/08/03 05:32:11;;;;;;;3.00;1.50;;;19.00;99.90;;;;;;5036518;28;20473;-58
2023/08/03 05:34:38;;;;;;;8.10;1.60;;;18.80;99.90;;;;;;5036201;28;20480;-61
2023/08/03 05:37:06;;;;;;;7.87;2.20;;;18.60;99.90;;;;;;5030513;28;20459;-62
2023/08/03 05:39:35;;;;;;;1.93;1.47;;;18.60;99.90;;;;;;5033061;28;20500;-59
2023/08/03 05:42:05;;;;;;;5.70;2.27;;;18.70;99.90;;;;;;5036039;28;20422;-58
2023/08/03 05:44:34;;;;;;;3.17;1.70;;;18.80;99.90;;;;;;5018553;28;20515;-59
2023/08/03 05:47:02;;;;;;;5.63;1.80;;;18.80;99.90;;;;;;5016202;28;20451;-59
2023/08/03 05:49:30;;;;;;;3.80;1.80;;;19.20;99.90;;;;;;5016527;28;20493;-56
2023/08/03 05:51:57;;;;;;;3.47;1.80;;;19.10;99.90;;;;;;5016791;28;20469;-59
2023/08/03 05:54:24;;;;;;;3.23;1.70;;;19.10;99.90;;;;;;5016309;28;20508;-61
2023/08/03 05:56:51;;;;;;;1.93;1.40;;;19.10;99.90;;;;;;5016088;28;20477;-60
2023/08/03 05:59:22;;;;;;;1.97;1.47;;;19.30;99.90;;;;;;5011606;28;20453;-60
2023/08/03 06:01:50;;;;;;;4.13;1.83;;;19.30;99.90;;;;;;4996298;28;20521;-62
2023/08/03 06:04:17;;;;;;;2.90;1.77;;;19.10;99.90;;;;;;5012403;28;20434;-62
2023/08/03 06:06:45;;;;;;;4.67;1.37;;;;;;;;;;5002050;28;20482;-64
2023/08/03 06:09:13;;;;;;;8.23;2.27;;;19.50;99.90;;;;;;5009715;28;20446;-56
2023/08/03 06:11:40;;;;;;;4.23;1.60;;;19.40;99.90;;;;;;5007314;28;20485;-61
2023/08/03 06:14:12;;;;;;;2.30;1.70;;;19.30;99.90;;;;;;5010482;28;20469;-62
2023/08/03 06:16:43;;;;;;;3.37;1.73;;;19.40;99.90;;;;;;5014226;28;20466;-61
2023/08/03 06:19:13;;;;;;;5.00;2.67;;;19.90;99.90;;;;;;5014832;28;20465;-60
2023/08/03 06:21:41;;;;;;;6.63;2.63;;;19.40;99.90;;;;;;5014686;28;20493;-59
2023/08/03 06:24:08;;;;;;;3.57;2.47;;;19.80;99.90;;;;;;5014100;28;20449;-60
2023/08/03 06:26:37;;;;;;;8.53;1.87;;;;;;;;;;5014407;28;20474;-60
2023/08/03 06:29:05;;;;;;;4.97;1.43;;;19.80;99.90;;;;;;5014126;28;20449;-61
2023/08/03 06:31:36;;;;;;;6.00;1.93;;;19.90;99.90;;;;;;5014599;28;20488;-61
2023/08/03 06:34:04;;;;;;;10.13;1.97;;;20.00;99.90;;;;;;5014558;28;20422;-59
2023/08/03 06:36:35;;;;;;;6.40;1.97;;;20.20;99.90;;;;;;5014274;28;20525;-62
2023/08/03 06:39:03;;;;;;;6.57;3.87;;;19.90;99.90;;;;;;5013950;28;20434;-57
2023/08/03 06:41:30;;;;;;;7.57;4.77;;;;;;;;;;5013876;28;20473;-61
2023/08/03 06:44:01;;;;;;;5.27;3.20;;;20.50;99.90;;;;;;5027654;28;20475;-59
2023/08/03 06:46:28;;;;;;;9.00;2.27;;;20.10;99.90;;;;;;5034235;28;20499;-59
2023/08/03 06:48:57;;;;;;;8.10;1.50;;;20.70;99.90;;;;;;5034792;28;20421;-62
2023/08/03 06:51:26;;;;;;;1.87;1.40;;;20.70;99.90;;;;;;5034256;28;20525;-58
2023/08/03 06:53:53;;;;;;;3.77;1.50;;;20.60;99.90;;;;;;5032793;28;20441;-62
2023/08/03 06:56:20;;;;;;;5.03;1.80;;;;;;;;;;5028954;28;20445;-62
2023/08/03 06:58:47;;;;;;;3.50;1.43;;;21.40;99.90;;;;;;5034253;28;20452;-61
2023/08/03 07:01:14;;;;;;;3.43;1.90;;;21.50;99.90;;;;;;5033994;28;20536;-62
2023/08/03 07:03:41;;;;;;;3.10;1.40;;;21.90;99.90;;;;;;5029736;28;20492;-63
2023/08/03 07:06:08;;;;;;;4.17;1.83;;;;;;;;;;5024022;28;20507;-60
2023/08/03 07:08:36;;;;;;;9.37;1.60;;;22.00;99.90;;;;;;5033286;28;20437;-59
2023/08/03 07:11:06;;;;;;;5.90;1.83;;;21.80;99.90;;;;;;5032677;28;20502;-62
2023/08/03 07:13:33;;;;;;;4.17;1.90;;;21.60;99.90;;;;;;5029695;28;20473;-63
2023/08/03 07:16:14;;;;;;;2.60;1.47;;;21.60;99.90;;;;;;5027137;28;20468;-49
2023/08/03 07:18:41;;;;;;;9.70;1.73;;;22.40;99.90;;;;;;5036196;28;20440;-61
2023/08/03 07:21:09;;;;;;;2.87;1.80;;;;;;;;;;5020165;28;20457;-62
2023/08/03 07:23:37;;;;;;;3.20;1.30;;;21.60;99.90;;;;;;5025942;28;20508;-62
2023/08/03 07:26:04;;;;;;;3.50;1.77;;;21.50;99.90;;;;;;5022590;28;20512;-62
2023/08/03 07:28:31;;;;;;;3.37;1.40;;;;;;;;;;5016120;28;20556;-62
2023/08/03 07:30:58;;;;;;;3.73;1.53;;;;;;;;;;5026715;28;20445;-63
2023/08/03 07:33:26;;;;;;;8.63;1.80;;;21.70;99.90;;;;;;5031636;28;20488;-62
2023/08/03 07:35:53;;;;;;;1.97;1.30;;;21.40;99.90;;;;;;5027149;28;20453;-63
2023/08/03 07:38:20;;;;;;;2.70;1.50;;;21.30;99.90;;;;;;5024091;28;20472;-61
2023/08/03 07:40:48;;;;;;;1.77;0.93;;;21.40;99.90;;;;;;5021774;28;20468;-63
2023/08/03 07:43:17;;;;;;;4.63;1.27;;;21.50;99.90;;;;;;5024883;28;20464;-57
2023/08/03 07:45:44;;;;;;;3.20;1.43;;;22.20;99.90;;;;;;5030152;28;20496;-55
2023/08/03 07:48:11;;;;;;;3.23;1.33;;;22.40;99.90;;;;;;5029767;28;20473;-61
2023/08/03 07:50:38;;;;;;;2.50;1.37;;;22.70;99.90;;;;;;5027115;28;20540;-63
2023/08/03 07:53:07;;;;;;;9.40;1.57;;;22.80;99.90;;;;;;5023856;28;20477;-57
2023/08/03 07:55:34;;;;;;;2.70;1.40;;;22.70;99.90;;;;;;5024204;28;20529;-59
2023/08/03 07:58:02;;;;;;;3.70;1.50;;;22.80;99.90;;;;;;5031929;28;20579;-59
2023/08/03 08:00:30;;;;;;;2.70;1.27;;;;;;;;;;5033602;28;20464;-52
2023/08/03 08:02:57;;;;;;;3.93;1.33;;;22.80;99.90;;;;;;5017290;28;20503;-63
2023/08/03 08:05:24;;;;;;;2.60;1.07;;;23.00;99.90;;;;;;5020810;28;20465;-63
2023/08/03 08:07:51;;;;;;;2.93;1.50;;;22.80;99.90;;;;;;5012618;28;20934;-59
2023/08/03 08:10:19;;;;;;;1.63;1.17;;;23.10;99.90;;;;;;5014168;28;20464;-63
2023/08/03 08:12:46;;;;;;;1.60;1.30;;;23.20;99.90;;;;;;5011431;28;20492;-60
2023/08/03 08:15:16;;;;;;;2.40;1.50;;;22.90;99.90;;;;;;5017872;28;20488;-62
2023/08/03 08:17:43;;;;;;;6.00;1.40;;;23.00;99.90;;;;;;5027334;28;20460;-62
2023/08/03 08:20:11;;;;;;;4.90;1.20;;;22.80;99.90;;;;;;5031966;28;20654;-64
2023/08/03 08:22:38;;;;;;;3.87;1.20;;;22.40;99.90;;;;;;5017993;28;20496;-60
2023/08/03 08:25:06;;;;;;;2.33;1.00;;;22.40;99.90;;;;;;5025607;28;20426;-55
2023/08/03 08:27:33;;;;;;;10.03;1.37;;;22.40;99.90;;;;;;5037173;28;20421;-62
2023/08/03 08:30:00;;;;;;;1.70;1.20;;;22.20;99.90;;;;;;5016179;28;20812;-62
2023/08/03 08:32:29;;;;;;;2.70;2.20;;;22.10;99.90;;;;;;5017385;28;20480;-64
2023/08/03 08:34:55;;;;;;;2.83;1.40;;;22.40;99.90;;;;;;5017534;28;20536;-64
2023/08/03 08:37:23;;;;;;;4.77;1.60;;;22.40;99.90;;;;;;5023697;28;20802;-63
2023/08/03 08:39:49;;;;;;;3.40;1.10;;;23.30;99.90;;;;;;5019498;28;20452;-61
2023/08/03 08:42:17;;;;;;;1.17;0.90;;;23.10;99.90;;;;;;5017365;28;20551;-67
2023/08/03 08:44:46;;;;;;;2.30;1.27;;;23.20;99.90;;;;;;5023246;28;20433;-47
2023/08/03 08:47:13;;;;;;;4.60;1.10;;;;;;;;;;5027729;28;20450;-63
2023/08/03 08:49:41;;;;;;;1.97;1.10;;;24.30;99.90;;;;;;4997508;28;20524;-64
2023/08/03 08:52:09;;;;;;;1.23;1.00;;;24.70;99.90;;;;;;4997692;28;20550;-60
2023/08/03 08:54:37;;;;;;;1.30;1.00;;;24.80;99.90;;;;;;4997687;28;20532;-63
2023/08/03 08:57:06;;;;;;;1.37;1.03;;;24.50;99.90;;;;;;4999149;28;20510;-60
2023/08/03 08:59:33;;;;;;;1.93;1.07;;;23.80;99.90;;;;;;5011469;28;20930;-70
2023/08/03 09:02:01;;;;;;;2.83;1.03;;;24.10;99.90;;;;;;5012466;28;20512;-66
2023/08/03 09:04:32;;;;;;;1.90;1.10;;;23.40;99.90;;;;;;5026389;28;20444;-50
2023/08/03 09:07:00;;;;;;;3.00;1.13;;;23.70;99.90;;;;;;5040243;28;20451;-52
2023/08/03 09:09:34;;;;;;;3.73;1.20;;;23.50;99.90;;;;;;5033470;28;20453;-55
2023/08/03 09:12:01;;;;;;;1.83;0.90;;;;;;;;;;5040255;28;20453;-48
2023/08/03 09:14:31;;;;;;;1.93;1.63;;;24.30;99.90;;;;;;5031561;28;20476;-65
2023/08/03 09:17:16;;;;;;;1.30;0.90;;;25.70;99.90;;;;;;5021241;28;20469;-61
2023/08/03 09:19:44;;;;;;;1.10;0.80;;;26.20;99.90;;;;;;5035586;28;20525;-61
2023/08/03 09:22:12;;;;;;;6.03;2.80;;;26.80;99.90;;;;;;5031452;28;20481;-49
2023/08/03 09:24:39;;;;;;;1.37;1.10;;;26.40;99.90;;;;;;5025611;28;20487;-63
2023/08/03 09:27:06;;;;;;;3.37;1.37;;;25.80;99.90;;;;;;5031480;28;20489;-52
2023/08/03 09:29:34;;;;;;;2.23;1.10;;;25.30;99.90;;;;;;5013770;28;20541;-61
2023/08/03 09:32:03;;;;;;;4.20;2.07;;;24.40;99.90;;;;;;5029372;28;20898;-66
2023/08/03 09:34:42;;;;;;;2.07;1.97;;;23.70;99.90;;;;;;5027396;28;20480;-67
2023/08/03 09:37:09;;;;;;;2.17;1.07;;;23.80;99.90;;;;;;5034229;28;20500;-63
2023/08/03 09:39:40;;;;;;;11.17;5.80;;;23.80;99.90;;;;;;5016450;28;20513;-69
2023/08/03 09:42:09;;;;;;;4.20;1.53;;;23.80;99.90;;;;;;5027287;28;20446;-65
2023/08/03 09:44:38;;;;;;;1.30;1.00;;;24.20;99.90;;;;;;5018142;28;20430;-49
2023/08/03 09:47:06;;;;;;;1.23;1.00;;;23.50;99.90;;;;;;5027701;28;20442;-59
2023/08/03 09:49:33;;;;;;;2.63;2.00;;;23.40;99.90;;;;;;4996546;28;20817;-64
2023/08/03 09:52:05;;;;;;;1.17;1.07;;;23.30;99.90;;;;;;5016122;28;20465;-65
2023/08/03 09:54:38;;;;;;;3.03;2.03;;;23.50;99.90;;;;;;5011345;28;20517;-60
2023/08/03 09:57:11;;;;;;;1.23;0.97;;;24.20;99.90;;;;;;4997046;28;20438;-63
2023/08/03 09:59:43;;;;;;;1.77;0.80;;;25.10;99.90;;;;;;5015690;28;20473;-49
2023/08/03 10:02:11;;;;;;;2.97;1.63;;;;;;;;;;5026505;28;20992;-65
2023/08/03 10:04:43;;;;;;;4.30;1.07;;;26.50;99.90;;;;;;5017068;28;20842;-68
2023/08/03 10:07:11;;;;;;;3.53;2.00;;;27.30;99.90;;;;;;5032716;28;20855;-66
2023/08/03 10:09:40;;;;;;;3.30;1.00;;;27.90;98.60;;;;;;5017821;28;20472;-65
2023/08/03 10:12:17;;;;;;;3.70;2.03;;;27.80;99.90;;;;;;5014748;28;20476;-66
2023/08/03 10:14:46;;;;;;;2.00;1.60;;;27.70;99.90;;;;;;5014272;28;20950;-66
2023/08/03 10:17:13;;;;;;;5.90;3.23;;;27.50;99.90;;;;;;4996273;28;20541;-67
2023/08/03 10:19:40;;;;;;;1.67;0.97;;;;;;;;;;5001770;28;20516;-54
2023/08/03 10:22:08;;;;;;;1.27;0.90;;;27.00;99.90;;;;;;5014905;28;20453;-66
2023/08/03 10:24:35;;;;;;;1.60;0.80;;;27.00;99.90;;;;;;5008512;28;20470;-68
2023/08/03 10:27:18;;;;;;;2.30;1.00;;;27.20;99.90;;;;;;5001523;28;20489;-68
2023/08/03 10:29:58;;;;;;;4.27;0.97;;;26.70;99.90;;;;;;5005842;28;20470;-63
2023/08/03 10:32:27;;;;;;;1.87;1.40;;;26.00;99.90;;;;;;5015294;28;20458;-64
2023/08/03 10:34:58;;;;;;;2.10;1.20;;;;;;;;;;5005737;28;20493;-65
2023/08/03 10:37:25;;;;;;;1.80;1.50;;;24.80;99.90;;;;;;4996923;28;20465;-65
2023/08/03 10:39:54;;;;;;;2.17;1.70;;;24.20;99.90;;;;;;5000403;28;20501;-67
2023/08/03 10:42:27;;;;;;;4.53;1.37;;;23.80;99.90;;;;;;5014921;28;20449;-66
2023/08/03 10:44:56;;;;;;;2.20;1.17;;;23.30;99.90;;;;;;5027463;28;20460;-66
2023/08/03 10:47:27;;;;;;;4.13;1.57;;;23.30;99.90;;;;;;5021228;28;20912;-65
2023/08/03 10:49:59;;;;;;;1.10;0.73;;;23.40;99.90;;;;;;5019403;28;20492;-66
2023/08/03 10:52:29;;;;;;;1.30;0.87;;;23.30;99.90;;;;;;5030355;28;20430;-62
2023/08/03 10:54:57;;;;;;;5.63;0.97;;;23.30;99.90;;;;;;5027420;28;20535;-67
2023/08/03 10:57:27;;;;;;;3.87;1.40;;;24.00;99.90;;;;;;5025473;28;20485;-65
2023/08/03 10:59:55;;;;;;;1.77;1.13;;;24.60;99.90;;;;;;5024062;28;20563;-65
2023/08/03 11:02:28;;;;;;;1.60;1.20;;;24.80;99.90;;;;;;5023966;28;20826;-69
2023/08/03 11:04:56;;;;;;;2.00;1.07;;;24.80;99.90;;;;;;5012824;28;20472;-68
2023/08/03 11:07:25;;;;;;;2.70;1.10;;;24.80;99.90;;;;;;5010295;28;20442;-68
2023/08/03 11:09:53;;;;;;;2.33;1.40;;;24.30;99.90;;;;;;4999565;28;20516;-71
2023/08/03 11:12:22;;;;;;;1.20;0.90;;;24.30;99.90;;;;;;5009418;28;20480;-67
2023/08/03 11:14:52;;;;;;;2.07;1.20;;;24.00;99.90;;;;;;5007431;28;20537;-69
2023/08/03 11:17:24;;;;;;;2.03;0.83;;;24.00;99.90;;;;;;5000496;28;20477;-50
2023/08/03 11:19:52;;;;;;;1.30;0.83;;;24.10;99.90;;;;;;5010453;28;20426;-64
2023/08/03 11:22:21;;;;;;;2.30;1.20;;;23.90;99.90;;;;;;5000917;28;20442;-67
2023/08/03 11:24:48;;;;;;;1.60;0.90;;;23.40;99.90;;;;;;5009148;28;20795;-65
2023/08/03 11:27:15;;;;;;;1.40;1.00;;;22.70;99.90;;;;;;5005629;28;20517;-66
2023/08/03 11:29:42;;;;;;;2.43;1.10;;;22.30;99.90;;;;;;5014997;28;20449;-53
2023/08/03 11:32:11;;;;;;;1.33;1.00;;;22.20;99.90;;;;;;5014171;28;20446;-66
2023/08/03 11:34:39;;;;;;;1.73;1.23;;;22.00;99.90;;;;;;5022097;28;20484;-68
2023/08/03 11:37:07;;;;;;;2.00;1.00;;;21.80;99.90;;;;;;5039011;28;20444;-50
2023/08/03 11:39:34;;;;;;;1.67;1.30;;;21.80;99.90;;;;;;5011068;28;20548;-67
2023/08/03 11:42:03;;;;;;;2.63;1.03;;;21.60;99.90;;;;;;5017795;28;20462;-68
2023/08/03 11:44:30;;;;;;;2.10;1.20;;;;;;;;;;5027970;28;20432;-50
2023/08/03 11:47:05;;;;;;;2.13;1.20;;;21.50;99.90;;;;;;5029362;28;20483;-68
2023/08/03 11:49:34;;;;;;;1.30;1.13;;;21.60;99.90;;;;;;5033348;28;20460;-63
2023/08/03 11:52:01;;;;;;;3.03;1.07;;;21.90;99.90;;;;;;5035853;28;20953;-71
2023/08/03 11:54:30;;;;;;;1.20;0.97;;;21.80;99.90;;;;;;5023427;28;21176;-50
2023/08/03 11:58:07;;;;;;;3.23;0.90;;;;;;;;;;5036091;28;20469;-71
2023/08/03 11:59:48;;;;;;;2.80;0.90;;;22.70;99.90;;;;;;5028396;28;20449;-70
2023/08/03 12:02:15;;;;;;;5.47;2.70;;;23.10;99.90;;;;;;5023999;28;20480;-66
2023/08/03 12:04:44;;;;;;;1.30;1.20;;;23.30;99.90;;;;;;5035250;28;20492;-67
2023/08/03 12:07:11;;;;;;;2.23;1.00;;;;;;;;;;5021504;28;20493;-70
2023/08/03 12:09:41;;;;;;;1.67;1.20;;;23.20;99.90;;;;;;5032067;28;20901;-71
2023/08/03 12:12:10;;;;;;;4.53;1.10;;;23.90;99.90;;;;;;5035272;28;20473;-69
2023/08/03 12:14:39;;;;;;;1.33;0.90;;;23.30;99.90;;;;;;5025068;28;20885;-67
2023/08/03 12:17:11;;;;;;;1.00;0.90;;;23.30;99.90;;;;;;5032233;28;20477;-67
2023/08/03 12:19:38;;;;;;;6.40;1.37;;;;;;;;;;5025407;28;20532;-65
2023/08/03 12:22:11;;;;;;;1.30;0.80;;;23.20;99.90;;;;;;5037893;28;20790;-65
2023/08/03 12:24:38;;;;;;;2.10;0.90;;;;;;;;;;5034688;28;20429;-62
2023/08/03 12:27:06;;;;;;;2.63;1.27;;;22.80;99.90;;;;;;5025062;28;21003;-65
2023/08/03 12:29:33;;;;;;;8.00;1.40;;;;;;;;;;5021709;28;20460;-63
2023/08/03 12:32:03;;;;;;;6.30;2.03;;;22.20;99.90;;;;;;5029450;28;20453;-50
2023/08/03 12:34:31;;;;;;;2.70;0.90;;;21.70;99.90;;;;;;5037931;28;20477;-61
2023/08/03 12:36:58;;;;;;;1.03;0.90;;;21.80;99.90;;;;;;5017276;28;20515;-63
2023/08/03 12:39:27;;;;;;;3.30;1.60;;;21.80;99.90;;;;;;5019888;28;20469;-65
2023/08/03 12:41:54;;;;;;;3.33;1.50;;;22.00;99.90;;;;;;5021110;28;20453;-65
2023/08/03 12:44:20;;;;;;;4.83;1.10;;;21.50;99.90;;;;;;5018538;28;20491;-65
2023/08/03 12:46:47;;;;;;;1.13;0.93;;;22.20;99.90;;;;;;5017394;28;20441;-62
2023/08/03 12:49:15;;;;;;;1.83;1.47;;;;;;;;;;5018528;28;20469;-62
2023/08/03 12:51:42;;;;;;;2.30;1.20;;;22.40;99.90;;;;;;5014020;28;20524;-64
2023/08/03 12:54:09;;;;;;;1.57;1.20;;;22.20;99.90;;;;;;5018007;28;20572;-64
2023/08/03 12:56:38;;;;;;;1.40;1.10;;;22.10;99.90;;;;;;5016902;28;20444;-63
2023/08/03 12:59:06;;;;;;;1.47;1.00;;;21.70;99.90;;;;;;5016724;28;20519;-60
2023/08/03 13:01:34;;;;;;;3.00;1.97;;;21.20;99.90;;;;;;5019072;28;20464;-64
2023/08/03 13:04:01;;;;;;;2.30;1.53;;;22.30;99.90;;;;;;5030215;28;20477;-62
2023/08/03 13:06:28;;;;;;;1.47;1.00;;;21.60;99.90;;;;;;5030137;28;20472;-54